A7ABI ESGG-EDDB
Flight info
| Callsign | A7ABI |
|---|---|
| Flight time | 1h 5m |
| Altitude | 29000 |
| Route | TOPLA3J TOPLA L996 ATRIB DCT SALLO DCT USEDU Z14 BEKBA T280 KETAP KET06R |
| Aircraft | SF50/L-SDGRWY/L |
Departure
| Time | 2026-05-07 17:27 |
|---|---|
| Airport | Göteborg Landvetter Airport (ESGG) |
Arrival
| Time | 2026-05-07 18:32 |
|---|---|
| Airport | Berlin Brandenburg Airport (EDDB) |
| Time | Latitude | Longitude | Altitude | Speed | Heading |
|---|---|---|---|---|---|
| 2026-05-07 17:06 | 57.67080 | 12.29538 | 523 ft | 0 kts | 116° |
| 2026-05-07 17:23 | 57.67080 | 12.29539 | 523 ft | 1 kts | 110° |
| 2026-05-07 17:23 | 57.67087 | 12.29508 | 523 ft | 9 kts | 300° |
| 2026-05-07 17:24 | 57.67158 | 12.29413 | 524 ft | 21 kts | 25° |
| 2026-05-07 17:24 | 57.67277 | 12.29391 | 525 ft | 24 kts | 20° |
| 2026-05-07 17:24 | 57.67419 | 12.29442 | 526 ft | 16 kts | 290° |
| 2026-05-07 17:24 | 57.67460 | 12.29267 | 526 ft | 0 kts | 271° |
| 2026-05-07 17:25 | 57.67460 | 12.29238 | 526 ft | 9 kts | 269° |
| 2026-05-07 17:26 | 57.67438 | 12.29031 | 524 ft | 23 kts | 230° |
| 2026-05-07 17:26 | 57.67426 | 12.29014 | 524 ft | 0 kts | 206° |
| 2026-05-07 17:26 | 57.67397 | 12.28989 | 524 ft | 27 kts | 205° |
| 2026-05-07 17:26 | 57.67003 | 12.28622 | 523 ft | 97 kts | 208° |
| 2026-05-07 17:27 | 57.66290 | 12.27981 | 867 ft | 115 kts | 212° |
| 2026-05-07 17:27 | 57.65557 | 12.27316 | 1272 ft | 127 kts | 210° |
| 2026-05-07 17:27 | 57.64692 | 12.26522 | 1565 ft | 147 kts | 210° |
| 2026-05-07 17:27 | 57.63732 | 12.25656 | 1841 ft | 163 kts | 210° |
| 2026-05-07 17:28 | 57.62697 | 12.24717 | 2107 ft | 168 kts | 209° |
| 2026-05-07 17:28 | 57.61645 | 12.23739 | 2417 ft | 169 kts | 212° |
| 2026-05-07 17:28 | 57.60537 | 12.23062 | 2707 ft | 171 kts | 184° |
| 2026-05-07 17:28 | 57.59356 | 12.23066 | 2999 ft | 170 kts | 180° |
| 2026-05-07 17:29 | 57.58175 | 12.23020 | 3286 ft | 171 kts | 183° |
| 2026-05-07 17:29 | 57.56938 | 12.22844 | 3517 ft | 177 kts | 185° |
| 2026-05-07 17:29 | 57.55745 | 12.22648 | 3727 ft | 170 kts | 184° |
| 2026-05-07 17:29 | 57.54564 | 12.22869 | 3932 ft | 172 kts | 169° |
| 2026-05-07 17:30 | 57.53384 | 12.23301 | 4154 ft | 173 kts | 165° |
| 2026-05-07 17:30 | 57.52231 | 12.23914 | 4381 ft | 172 kts | 163° |
| 2026-05-07 17:30 | 57.51083 | 12.24477 | 4604 ft | 170 kts | 164° |
| 2026-05-07 17:30 | 57.49936 | 12.25020 | 4831 ft | 171 kts | 165° |
| 2026-05-07 17:31 | 57.48780 | 12.25562 | 5053 ft | 172 kts | 165° |
| 2026-05-07 17:31 | 57.47614 | 12.26109 | 5290 ft | 173 kts | 165° |
| 2026-05-07 17:31 | 57.46465 | 12.26648 | 5515 ft | 171 kts | 165° |
| 2026-05-07 17:31 | 57.45297 | 12.27199 | 5733 ft | 170 kts | 165° |
| 2026-05-07 17:32 | 57.44145 | 12.27741 | 5943 ft | 171 kts | 165° |
| 2026-05-07 17:32 | 57.42985 | 12.28286 | 6179 ft | 172 kts | 165° |
| 2026-05-07 17:32 | 57.41820 | 12.28833 | 6417 ft | 173 kts | 166° |
| 2026-05-07 17:32 | 57.41045 | 12.29195 | 6570 ft | 174 kts | 166° |
| 2026-05-07 17:33 | 57.39489 | 12.29924 | 6862 ft | 175 kts | 166° |
| 2026-05-07 17:33 | 57.38307 | 12.30481 | 7087 ft | 176 kts | 166° |
| 2026-05-07 17:33 | 57.37115 | 12.31040 | 7301 ft | 177 kts | 166° |
| 2026-05-07 17:33 | 57.35913 | 12.31606 | 7529 ft | 178 kts | 167° |
| 2026-05-07 17:34 | 57.34704 | 12.32169 | 7759 ft | 180 kts | 167° |
| 2026-05-07 17:34 | 57.33486 | 12.32739 | 7993 ft | 181 kts | 167° |
| 2026-05-07 17:34 | 57.32258 | 12.33314 | 8223 ft | 182 kts | 167° |
| 2026-05-07 17:34 | 57.31018 | 12.33894 | 8449 ft | 186 kts | 167° |
| 2026-05-07 17:35 | 57.29758 | 12.34479 | 8702 ft | 187 kts | 167° |
| 2026-05-07 17:35 | 57.28504 | 12.35061 | 8945 ft | 188 kts | 168° |
| 2026-05-07 17:35 | 57.27231 | 12.35655 | 9193 ft | 189 kts | 168° |
| 2026-05-07 17:35 | 57.25951 | 12.36251 | 9437 ft | 189 kts | 168° |
| 2026-05-07 17:36 | 57.24671 | 12.36845 | 9678 ft | 190 kts | 167° |
| 2026-05-07 17:36 | 57.23388 | 12.37443 | 9933 ft | 190 kts | 168° |
| 2026-05-07 17:36 | 57.22107 | 12.38036 | 10160 ft | 190 kts | 167° |
| 2026-05-07 17:36 | 57.20820 | 12.38635 | 10393 ft | 192 kts | 168° |
| 2026-05-07 17:37 | 57.19524 | 12.39236 | 10628 ft | 193 kts | 168° |
| 2026-05-07 17:37 | 57.18217 | 12.39839 | 10867 ft | 194 kts | 169° |
| 2026-05-07 17:37 | 57.16912 | 12.40444 | 11176 ft | 199 kts | 168° |
| 2026-05-07 17:37 | 57.15588 | 12.41063 | 11885 ft | 195 kts | 168° |
| 2026-05-07 17:38 | 57.14253 | 12.41677 | 12428 ft | 199 kts | 168° |
| 2026-05-07 17:38 | 57.12905 | 12.42301 | 12994 ft | 201 kts | 168° |
| 2026-05-07 17:38 | 57.11541 | 12.42932 | 13553 ft | 203 kts | 168° |
| 2026-05-07 17:38 | 57.10163 | 12.43563 | 14081 ft | 205 kts | 168° |
| 2026-05-07 17:39 | 57.08769 | 12.44207 | 14580 ft | 207 kts | 168° |
| 2026-05-07 17:39 | 57.07371 | 12.44850 | 15056 ft | 208 kts | 169° |
| 2026-05-07 17:39 | 57.05958 | 12.45499 | 15530 ft | 210 kts | 168° |
| 2026-05-07 17:39 | 57.04532 | 12.46156 | 16008 ft | 212 kts | 169° |
| 2026-05-07 17:40 | 57.03096 | 12.46817 | 16477 ft | 214 kts | 169° |
| 2026-05-07 17:40 | 57.01645 | 12.47484 | 16935 ft | 215 kts | 169° |
| 2026-05-07 17:40 | 57.00186 | 12.48157 | 17400 ft | 217 kts | 169° |
| 2026-05-07 17:40 | 56.98715 | 12.48831 | 17856 ft | 218 kts | 169° |
| 2026-05-07 17:41 | 56.97256 | 12.49498 | 18305 ft | 220 kts | 169° |
| 2026-05-07 17:41 | 56.95769 | 12.50178 | 18705 ft | 221 kts | 169° |
| 2026-05-07 17:41 | 56.94267 | 12.50866 | 19081 ft | 223 kts | 169° |
| 2026-05-07 17:41 | 56.92758 | 12.51554 | 19456 ft | 224 kts | 169° |
| 2026-05-07 17:42 | 56.91236 | 12.52240 | 19826 ft | 226 kts | 169° |
| 2026-05-07 17:42 | 56.89703 | 12.52934 | 20188 ft | 228 kts | 168° |
| 2026-05-07 17:42 | 56.88156 | 12.53641 | 20557 ft | 229 kts | 168° |
| 2026-05-07 17:42 | 56.86605 | 12.54349 | 20917 ft | 231 kts | 168° |
| 2026-05-07 17:43 | 56.85038 | 12.55062 | 21307 ft | 232 kts | 169° |
| 2026-05-07 17:43 | 56.83472 | 12.55778 | 21709 ft | 231 kts | 169° |
| 2026-05-07 17:43 | 56.81931 | 12.56476 | 22093 ft | 231 kts | 169° |
| 2026-05-07 17:43 | 56.80370 | 12.57188 | 22487 ft | 231 kts | 169° |
| 2026-05-07 17:44 | 56.78804 | 12.57895 | 22867 ft | 231 kts | 169° |
| 2026-05-07 17:44 | 56.77241 | 12.58603 | 23273 ft | 231 kts | 169° |
| 2026-05-07 17:44 | 56.75676 | 12.59311 | 23664 ft | 231 kts | 169° |
| 2026-05-07 17:44 | 56.74109 | 12.60008 | 23995 ft | 231 kts | 169° |
| 2026-05-07 17:45 | 56.72560 | 12.60701 | 24357 ft | 229 kts | 168° |
| 2026-05-07 17:45 | 56.71015 | 12.61394 | 24697 ft | 228 kts | 169° |
| 2026-05-07 17:45 | 56.69489 | 12.62073 | 25033 ft | 228 kts | 168° |
| 2026-05-07 17:45 | 56.67948 | 12.62772 | 25376 ft | 228 kts | 168° |
| 2026-05-07 17:46 | 56.66409 | 12.63465 | 25715 ft | 228 kts | 168° |
| 2026-05-07 17:46 | 56.64874 | 12.64160 | 26051 ft | 228 kts | 168° |
| 2026-05-07 17:46 | 56.63334 | 12.64852 | 26390 ft | 227 kts | 168° |
| 2026-05-07 17:46 | 56.61801 | 12.65542 | 26726 ft | 227 kts | 168° |
| 2026-05-07 17:47 | 56.60267 | 12.66233 | 27055 ft | 227 kts | 168° |
| 2026-05-07 17:47 | 56.58735 | 12.66917 | 27392 ft | 226 kts | 168° |
| 2026-05-07 17:47 | 56.57203 | 12.67603 | 27729 ft | 226 kts | 168° |
| 2026-05-07 17:47 | 56.55678 | 12.68287 | 28059 ft | 226 kts | 168° |
| 2026-05-07 17:48 | 56.40302 | 12.75113 | 29211 ft | 274 kts | 166° |
| 2026-05-07 17:48 | 56.31577 | 12.78962 | 29136 ft | 302 kts | 168° |
| 2026-05-07 17:48 | 55.98048 | 12.93955 | 29119 ft | 313 kts | 167° |
| 2026-05-07 17:48 | 55.75190 | 13.03482 | 29122 ft | 314 kts | 169° |
| 2026-05-07 17:49 | 55.19918 | 13.26890 | 29116 ft | 311 kts | 162° |
| 2026-05-07 17:49 | 55.15728 | 13.28698 | 29122 ft | 312 kts | 167° |
| 2026-05-07 17:50 | 55.11533 | 13.30410 | 29120 ft | 307 kts | 166° |
| 2026-05-07 17:50 | 55.07351 | 13.32154 | 29120 ft | 311 kts | 167° |
| 2026-05-07 17:51 | 55.03863 | 13.33594 | 29121 ft | 306 kts | 167° |
| 2026-05-07 17:51 | 54.99058 | 13.35576 | 29115 ft | 305 kts | 167° |
| 2026-05-07 17:52 | 54.95612 | 13.36994 | 29117 ft | 307 kts | 167° |
| 2026-05-07 17:52 | 54.91448 | 13.38711 | 29119 ft | 306 kts | 167° |
| 2026-05-07 17:53 | 54.87316 | 13.40404 | 29117 ft | 304 kts | 167° |
| 2026-05-07 17:53 | 54.83348 | 13.42813 | 29117 ft | 306 kts | 158° |
| 2026-05-07 17:54 | 54.79324 | 13.45294 | 29116 ft | 307 kts | 167° |
| 2026-05-07 17:54 | 54.77202 | 13.45520 | 29121 ft | 306 kts | 186° |
| 2026-05-07 17:54 | 54.75141 | 13.44742 | 29122 ft | 302 kts | 195° |
| 2026-05-07 17:55 | 54.73118 | 13.43792 | 29121 ft | 300 kts | 195° |
| 2026-05-07 17:55 | 54.71069 | 13.43036 | 29119 ft | 302 kts | 191° |
| 2026-05-07 17:55 | 54.66923 | 13.41666 | 29121 ft | 304 kts | 192° |
| 2026-05-07 17:56 | 54.62775 | 13.40166 | 29122 ft | 305 kts | 192° |
| 2026-05-07 17:56 | 54.58620 | 13.38712 | 29120 ft | 303 kts | 192° |
| 2026-05-07 17:57 | 54.55188 | 13.37503 | 29118 ft | 302 kts | 192° |
| 2026-05-07 17:57 | 54.50399 | 13.35822 | 29114 ft | 299 kts | 192° |
| 2026-05-07 17:58 | 54.48380 | 13.35114 | 29114 ft | 300 kts | 192° |
| 2026-05-07 17:58 | 54.46323 | 13.34393 | 29115 ft | 301 kts | 193° |
| 2026-05-07 17:58 | 54.42193 | 13.32947 | 29115 ft | 302 kts | 192° |
| 2026-05-07 17:59 | 54.40139 | 13.32228 | 29114 ft | 300 kts | 192° |
| 2026-05-07 17:59 | 54.38094 | 13.31515 | 29112 ft | 300 kts | 192° |
| 2026-05-07 17:59 | 54.36050 | 13.30803 | 29112 ft | 299 kts | 192° |
| 2026-05-07 17:59 | 54.34005 | 13.30090 | 29111 ft | 300 kts | 192° |
| 2026-05-07 18:00 | 54.29905 | 13.28667 | 29114 ft | 301 kts | 192° |
| 2026-05-07 18:00 | 54.25810 | 13.27246 | 29118 ft | 298 kts | 192° |
| 2026-05-07 18:01 | 54.23789 | 13.26547 | 29116 ft | 295 kts | 192° |
| 2026-05-07 18:01 | 54.21770 | 13.25847 | 29114 ft | 297 kts | 192° |
| 2026-05-07 18:01 | 54.19742 | 13.25147 | 29115 ft | 298 kts | 192° |
| 2026-05-07 18:01 | 54.17733 | 13.24454 | 29115 ft | 298 kts | 192° |
| 2026-05-07 18:02 | 54.13651 | 13.23044 | 29118 ft | 299 kts | 192° |
| 2026-05-07 18:02 | 54.11610 | 13.22341 | 29115 ft | 299 kts | 192° |
| 2026-05-07 18:02 | 54.09570 | 13.21639 | 29115 ft | 298 kts | 192° |
| 2026-05-07 18:03 | 54.07538 | 13.20940 | 29117 ft | 298 kts | 192° |
| 2026-05-07 18:03 | 54.05504 | 13.20241 | 29116 ft | 298 kts | 192° |
| 2026-05-07 18:03 | 54.03475 | 13.19545 | 29116 ft | 298 kts | 192° |
| 2026-05-07 18:03 | 54.01443 | 13.18850 | 29113 ft | 297 kts | 192° |
| 2026-05-07 18:04 | 53.99428 | 13.18162 | 29112 ft | 295 kts | 192° |
| 2026-05-07 18:04 | 53.97417 | 13.17475 | 29111 ft | 294 kts | 192° |
| 2026-05-07 18:04 | 53.95407 | 13.16787 | 29109 ft | 294 kts | 192° |
| 2026-05-07 18:04 | 53.93424 | 13.16111 | 29110 ft | 294 kts | 192° |
| 2026-05-07 18:05 | 53.91422 | 13.15429 | 29106 ft | 293 kts | 192° |
| 2026-05-07 18:05 | 53.89421 | 13.14748 | 29105 ft | 294 kts | 192° |
| 2026-05-07 18:05 | 53.87417 | 13.14065 | 29106 ft | 294 kts | 192° |
| 2026-05-07 18:05 | 53.85407 | 13.13382 | 29106 ft | 295 kts | 192° |
| 2026-05-07 18:06 | 53.83392 | 13.12696 | 29109 ft | 296 kts | 192° |
| 2026-05-07 18:06 | 53.81369 | 13.12009 | 29109 ft | 295 kts | 192° |
| 2026-05-07 18:06 | 53.79353 | 13.11338 | 29107 ft | 295 kts | 190° |
| 2026-05-07 18:06 | 53.77308 | 13.11103 | 29104 ft | 294 kts | 182° |
| 2026-05-07 18:07 | 53.75267 | 13.11019 | 29102 ft | 293 kts | 183° |
| 2026-05-07 18:07 | 53.73238 | 13.10877 | 29099 ft | 293 kts | 184° |
| 2026-05-07 18:07 | 53.71267 | 13.10702 | 29096 ft | 293 kts | 184° |
| 2026-05-07 18:07 | 53.69230 | 13.10537 | 29098 ft | 293 kts | 184° |
| 2026-05-07 18:08 | 53.67215 | 13.10391 | 29099 ft | 293 kts | 182° |
| 2026-05-07 18:08 | 53.65145 | 13.10237 | 29099 ft | 296 kts | 182° |
| 2026-05-07 18:08 | 53.63104 | 13.10077 | 29100 ft | 297 kts | 182° |
| 2026-05-07 18:08 | 53.61030 | 13.09916 | 29097 ft | 299 kts | 182° |
| 2026-05-07 18:09 | 53.58946 | 13.09759 | 29097 ft | 299 kts | 182° |
| 2026-05-07 18:09 | 53.56866 | 13.09598 | 29098 ft | 300 kts | 182° |
| 2026-05-07 18:09 | 53.54771 | 13.09435 | 29099 ft | 301 kts | 182° |
| 2026-05-07 18:10 | 53.50583 | 13.09118 | 29099 ft | 303 kts | 182° |
| 2026-05-07 18:10 | 53.46355 | 13.08793 | 29101 ft | 305 kts | 182° |
| 2026-05-07 18:11 | 53.42132 | 13.08469 | 28885 ft | 310 kts | 182° |
| 2026-05-07 18:11 | 53.40670 | 13.08360 | 28515 ft | 309 kts | 182° |
| 2026-05-07 18:11 | 53.37873 | 13.08149 | 27795 ft | 300 kts | 182° |
| 2026-05-07 18:11 | 53.35802 | 13.07990 | 27257 ft | 297 kts | 182° |
| 2026-05-07 18:12 | 53.33713 | 13.07832 | 26730 ft | 302 kts | 182° |
| 2026-05-07 18:12 | 53.31604 | 13.07675 | 26217 ft | 305 kts | 182° |
| 2026-05-07 18:12 | 53.29471 | 13.07513 | 25718 ft | 307 kts | 182° |
| 2026-05-07 18:12 | 53.27337 | 13.07351 | 25219 ft | 307 kts | 182° |
| 2026-05-07 18:13 | 53.25191 | 13.07189 | 24733 ft | 309 kts | 182° |
| 2026-05-07 18:13 | 53.23036 | 13.07027 | 24254 ft | 309 kts | 182° |
| 2026-05-07 18:13 | 53.20887 | 13.06866 | 23784 ft | 309 kts | 182° |
| 2026-05-07 18:13 | 53.18729 | 13.06703 | 23246 ft | 313 kts | 182° |
| 2026-05-07 18:14 | 53.16552 | 13.06537 | 22698 ft | 313 kts | 183° |
| 2026-05-07 18:14 | 53.14373 | 13.06374 | 22159 ft | 314 kts | 183° |
| 2026-05-07 18:14 | 53.12181 | 13.06208 | 21630 ft | 316 kts | 183° |
| 2026-05-07 18:14 | 53.10003 | 13.06045 | 21116 ft | 315 kts | 183° |
| 2026-05-07 18:15 | 53.07815 | 13.05882 | 20604 ft | 314 kts | 183° |
| 2026-05-07 18:15 | 53.05622 | 13.05717 | 20098 ft | 315 kts | 183° |
| 2026-05-07 18:15 | 53.03431 | 13.05553 | 19605 ft | 314 kts | 183° |
| 2026-05-07 18:15 | 53.01278 | 13.05393 | 19125 ft | 315 kts | 184° |
| 2026-05-07 18:16 | 52.99076 | 13.05227 | 18644 ft | 317 kts | 184° |
| 2026-05-07 18:16 | 52.96867 | 13.05062 | 18134 ft | 318 kts | 184° |
| 2026-05-07 18:16 | 52.94651 | 13.04900 | 17598 ft | 318 kts | 184° |
| 2026-05-07 18:16 | 52.92443 | 13.04735 | 17068 ft | 318 kts | 184° |
| 2026-05-07 18:17 | 52.90230 | 13.04570 | 16544 ft | 317 kts | 184° |
| 2026-05-07 18:17 | 52.88043 | 13.04409 | 16031 ft | 313 kts | 184° |
| 2026-05-07 18:17 | 52.85872 | 13.04247 | 15523 ft | 310 kts | 183° |
| 2026-05-07 18:17 | 52.83728 | 13.04087 | 15026 ft | 307 kts | 183° |
| 2026-05-07 18:18 | 52.81630 | 13.03932 | 14539 ft | 304 kts | 183° |
| 2026-05-07 18:18 | 52.79516 | 13.03776 | 14056 ft | 302 kts | 183° |
| 2026-05-07 18:18 | 52.77424 | 13.03621 | 13539 ft | 301 kts | 183° |
| 2026-05-07 18:18 | 52.75338 | 13.03466 | 13004 ft | 298 kts | 183° |
| 2026-05-07 18:19 | 52.73280 | 13.03316 | 12476 ft | 294 kts | 183° |
| 2026-05-07 18:19 | 52.71232 | 13.03165 | 11954 ft | 291 kts | 183° |
| 2026-05-07 18:19 | 52.69222 | 13.03019 | 11444 ft | 288 kts | 183° |
| 2026-05-07 18:19 | 52.67223 | 13.02871 | 10946 ft | 287 kts | 183° |
| 2026-05-07 18:20 | 52.65227 | 13.02725 | 10458 ft | 286 kts | 183° |
| 2026-05-07 18:20 | 52.63343 | 13.02588 | 9289 ft | 263 kts | 182° |
| 2026-05-07 18:20 | 52.61501 | 13.02451 | 8129 ft | 258 kts | 182° |
| 2026-05-07 18:20 | 52.59691 | 13.02320 | 8080 ft | 269 kts | 182° |
| 2026-05-07 18:21 | 52.57801 | 13.02180 | 8087 ft | 274 kts | 182° |
| 2026-05-07 18:21 | 52.55883 | 13.02039 | 8090 ft | 278 kts | 182° |
| 2026-05-07 18:21 | 52.54049 | 13.01903 | 6976 ft | 254 kts | 182° |
| 2026-05-07 18:21 | 52.52236 | 13.01772 | 4912 ft | 266 kts | 181° |
| 2026-05-07 18:22 | 52.50448 | 13.01641 | 4093 ft | 245 kts | 181° |
| 2026-05-07 18:22 | 52.49312 | 13.01618 | 4070 ft | 254 kts | 173° |
| 2026-05-07 18:22 | 52.47100 | 13.02956 | 4075 ft | 260 kts | 160° |
| 2026-05-07 18:22 | 52.45349 | 13.03561 | 4083 ft | 248 kts | 169° |
| 2026-05-07 18:23 | 52.43676 | 13.03995 | 4080 ft | 240 kts | 169° |
| 2026-05-07 18:23 | 52.42028 | 13.04389 | 4006 ft | 238 kts | 169° |
| 2026-05-07 18:23 | 52.40410 | 13.04771 | 3986 ft | 233 kts | 169° |
| 2026-05-07 18:23 | 52.38789 | 13.05148 | 3980 ft | 237 kts | 170° |
| 2026-05-07 18:24 | 52.37160 | 13.05528 | 3991 ft | 236 kts | 169° |
| 2026-05-07 18:24 | 52.35557 | 13.05900 | 3991 ft | 227 kts | 170° |
| 2026-05-07 18:24 | 52.34034 | 13.06243 | 3984 ft | 216 kts | 170° |
| 2026-05-07 18:24 | 52.32551 | 13.06576 | 3978 ft | 214 kts | 170° |
| 2026-05-07 18:25 | 52.31094 | 13.06903 | 3973 ft | 213 kts | 169° |
| 2026-05-07 18:25 | 52.29629 | 13.07229 | 3973 ft | 213 kts | 170° |
| 2026-05-07 18:25 | 52.28199 | 13.07702 | 3971 ft | 210 kts | 154° |
| 2026-05-07 18:25 | 52.27205 | 13.09351 | 3970 ft | 207 kts | 110° |
| 2026-05-07 18:26 | 52.26932 | 13.11612 | 3984 ft | 203 kts | 95° |
| 2026-05-07 18:26 | 52.26760 | 13.13908 | 3993 ft | 204 kts | 95° |
| 2026-05-07 18:26 | 52.26837 | 13.16169 | 3979 ft | 201 kts | 66° |
| 2026-05-07 18:26 | 52.27769 | 13.17820 | 3982 ft | 199 kts | 36° |
| 2026-05-07 18:27 | 52.28875 | 13.19047 | 3350 ft | 192 kts | 35° |
| 2026-05-07 18:27 | 52.29947 | 13.20221 | 2994 ft | 178 kts | 34° |
| 2026-05-07 18:27 | 52.31008 | 13.21386 | 2988 ft | 193 kts | 35° |
| 2026-05-07 18:27 | 52.31753 | 13.22213 | 2996 ft | 196 kts | 35° |
| 2026-05-07 18:28 | 52.33007 | 13.24193 | 2636 ft | 185 kts | 67° |
| 2026-05-07 18:28 | 52.33032 | 13.26227 | 2495 ft | 180 kts | 95° |
| 2026-05-07 18:28 | 52.32855 | 13.28370 | 2503 ft | 196 kts | 95° |
| 2026-05-07 18:28 | 52.32696 | 13.30571 | 2484 ft | 193 kts | 91° |
| 2026-05-07 18:29 | 52.33006 | 13.32691 | 2263 ft | 194 kts | 66° |
| 2026-05-07 18:29 | 52.33500 | 13.34675 | 2013 ft | 180 kts | 69° |
| 2026-05-07 18:29 | 52.33893 | 13.36419 | 1788 ft | 155 kts | 68° |
| 2026-05-07 18:29 | 52.34289 | 13.38042 | 1571 ft | 149 kts | 67° |
| 2026-05-07 18:30 | 52.34633 | 13.39528 | 1370 ft | 130 kts | 68° |
| 2026-05-07 18:30 | 52.34948 | 13.40823 | 1193 ft | 117 kts | 67° |
| 2026-05-07 18:30 | 52.35229 | 13.42030 | 1031 ft | 113 kts | 68° |
| 2026-05-07 18:30 | 52.35509 | 13.43207 | 870 ft | 109 kts | 67° |
| 2026-05-07 18:31 | 52.35779 | 13.44342 | 727 ft | 106 kts | 68° |
| 2026-05-07 18:31 | 52.36041 | 13.45454 | 586 ft | 101 kts | 69° |
| 2026-05-07 18:31 | 52.36306 | 13.46543 | 455 ft | 108 kts | 67° |
| 2026-05-07 18:31 | 52.36580 | 13.47692 | 353 ft | 108 kts | 70° |
| 2026-05-07 18:32 | 52.36847 | 13.48822 | 183 ft | 105 kts | 69° |
| 2026-05-07 18:32 | 52.37101 | 13.49878 | 161 ft | 94 kts | 66° |
| 2026-05-07 18:32 | 52.37276 | 13.50635 | 148 ft | 43 kts | 72° |
| 2026-05-07 18:32 | 52.37303 | 13.51018 | 150 ft | 20 kts | 98° |
| 2026-05-07 18:33 | 52.37286 | 13.51214 | 152 ft | 14 kts | 98° |
| 2026-05-07 18:33 | 52.37280 | 13.51272 | 152 ft | 0 kts | 98° |